Time;durP1;ratioP1;P1;durP2;ratioP2;P2;SDS_P1;SDS_P2;PMS_P1;PMS_P2;Temp;Humidity;BMP_temperature;BMP_pressure;BME280_temperature;BME280_humidity;BME280_pressure;Samples;Min_cycle;Max_cycle;Signal;HPM_P1;HPM_P2
2021/05/22 00:00:07;;;;;;;4.63;1.30;;;14.90;51.60;;;;;;1482580;40;20028;-58
2021/05/22 00:01:27;;;;;;;0.85;0.77;;;14.90;51.40;;;;;;1484736;40;20040;-59
2021/05/22 00:02:48;;;;;;;1.60;0.90;;;14.90;51.30;;;;;;1483924;40;20051;-59
2021/05/22 00:04:09;;;;;;;3.53;0.90;;;14.90;51.30;;;;;;1483474;40;20036;-59
2021/05/22 00:05:30;;;;;;;2.30;0.77;;;14.90;51.10;;;;;;1484307;40;20043;-59
2021/05/22 00:06:51;;;;;;;1.80;0.95;;;14.90;51.00;;;;;;1483700;40;20122;-59
2021/05/22 00:08:12;;;;;;;2.00;1.10;;;14.90;51.00;;;;;;1481231;40;20032;-59
2021/05/22 00:09:33;;;;;;;2.75;0.95;;;14.90;50.90;;;;;;1484180;40;20130;-59
2021/05/22 00:10:54;;;;;;;1.58;0.70;;;14.90;50.80;;;;;;1478964;40;20045;-58
2021/05/22 00:12:16;;;;;;;3.15;0.93;;;14.90;50.50;;;;;;1478965;40;20122;-59
2021/05/22 00:13:37;;;;;;;2.75;0.73;;;14.90;50.40;;;;;;1480240;40;20024;-58
2021/05/22 00:14:58;;;;;;;2.00;1.00;;;14.90;50.20;;;;;;1480486;40;20040;-59
2021/05/22 00:16:18;;;;;;;1.55;0.70;;;15.00;50.20;;;;;;1480711;40;20354;-59
2021/05/22 00:17:39;;;;;;;1.50;0.63;;;14.90;50.10;;;;;;1478898;40;20048;-59
2021/05/22 00:19:01;;;;;;;1.55;0.77;;;14.90;49.90;;;;;;1480964;40;20357;-59
2021/05/22 00:20:22;;;;;;;1.88;0.57;;;14.90;49.80;;;;;;1478705;40;20028;-59
2021/05/22 00:21:43;;;;;;;3.78;0.85;;;14.90;49.70;;;;;;1480327;40;20040;-58
2021/05/22 00:23:04;;;;;;;4.38;1.20;;;14.90;49.50;;;;;;1478863;40;20032;-59
2021/05/22 00:24:24;;;;;;;1.48;0.77;;;14.90;49.50;;;;;;1480159;40;20021;-58
2021/05/22 00:25:46;;;;;;;1.92;0.70;;;14.90;49.40;;;;;;1478715;40;20037;-59
2021/05/22 00:27:06;;;;;;;1.33;0.68;;;14.90;49.50;;;;;;1481369;40;20538;-59
2021/05/22 00:28:28;;;;;;;2.63;1.10;;;14.90;50.00;;;;;;1479879;40;20026;-58
2021/05/22 00:29:49;;;;;;;1.98;0.70;;;14.90;49.50;;;;;;1478606;40;20249;-59
2021/05/22 00:31:10;;;;;;;2.83;0.70;;;14.90;49.50;;;;;;1480595;40;20039;-59
2021/05/22 00:32:31;;;;;;;1.02;0.68;;;14.90;49.40;;;;;;1477343;40;20033;-59
2021/05/22 00:33:52;;;;;;;1.38;0.73;;;14.90;49.50;;;;;;1476809;40;20131;-59
2021/05/22 00:35:13;;;;;;;1.90;0.50;;;14.90;49.50;;;;;;1479913;40;20302;-59
2021/05/22 00:36:34;;;;;;;2.40;0.80;;;14.90;49.50;;;;;;1477874;40;20037;-59
2021/05/22 00:37:55;;;;;;;2.03;0.80;;;14.90;49.50;;;;;;1479443;40;20120;-59
2021/05/22 00:39:16;;;;;;;2.03;0.80;;;14.90;50.00;;;;;;1479711;40;20029;-59
2021/05/22 00:40:37;;;;;;;1.95;0.95;;;14.90;49.50;;;;;;1481778;40;20366;-59
2021/05/22 00:42:03;;;;;;;0.60;0.60;;;14.90;49.50;;;;;;1481436;40;20024;-59
2021/05/22 00:43:24;;;;;;;2.97;0.90;;;14.90;50.10;;;;;;1478952;40;20428;-59
2021/05/22 00:45:10;;;;;;;1.05;0.63;;;14.90;49.50;;;;;;1482100;40;20037;-59
2021/05/22 00:46:31;;;;;;;1.23;0.47;;;14.90;49.70;;;;;;1479940;40;20056;-58
2021/05/22 00:47:56;;;;;;;1.70;0.70;;;14.90;49.60;;;;;;1477895;40;20033;-60
2021/05/22 00:49:17;;;;;;;1.02;0.60;;;14.90;49.60;;;;;;1480199;40;20036;-59
2021/05/22 00:50:40;;;;;;;1.60;0.82;;;14.90;49.70;;;;;;1480884;40;20029;-59
2021/05/22 00:52:01;;;;;;;1.05;0.63;;;14.90;49.70;;;;;;1478867;40;20040;-59
2021/05/22 00:53:22;;;;;;;1.98;0.60;;;14.80;49.70;;;;;;1480364;40;20652;-58
2021/05/22 00:54:43;;;;;;;1.70;0.70;;;14.80;49.70;;;;;;1480968;40;20311;-58
2021/05/22 00:56:04;;;;;;;1.50;0.60;;;14.80;49.80;;;;;;1481398;40;20040;-57
2021/05/22 00:57:26;;;;;;;0.60;0.57;;;14.80;49.80;;;;;;1479676;40;20036;-58
2021/05/22 00:58:47;;;;;;;1.02;0.75;;;14.80;49.80;;;;;;1480680;40;20476;-58
2021/05/22 01:00:11;;;;;;;2.13;0.80;;;14.80;49.90;;;;;;1481921;40;20028;-59
2021/05/22 01:01:32;;;;;;;2.13;0.90;;;14.80;50.00;;;;;;1479936;40;20039;-59
2021/05/22 01:02:52;;;;;;;1.13;0.80;;;14.80;49.90;;;;;;1479282;40;20041;-58
2021/05/22 01:04:19;;;;;;;1.48;0.73;;;14.80;49.90;;;;;;1478947;40;20037;-58
2021/05/22 01:05:42;;;;;;;1.25;0.80;;;14.80;50.10;;;;;;1479792;40;20037;-58
2021/05/22 01:07:04;;;;;;;2.17;0.80;;;14.80;50.10;;;;;;1479866;40;20059;-58
2021/05/22 01:08:25;;;;;;;1.70;0.73;;;14.80;50.10;;;;;;1479047;40;20050;-58
2021/05/22 01:09:49;;;;;;;2.53;0.77;;;14.80;50.10;;;;;;1477661;40;20099;-59
2021/05/22 01:11:31;;;;;;;2.65;1.15;;;14.80;50.30;;;;;;1481278;40;20033;-58
2021/05/22 01:12:55;;;;;;;1.98;0.70;;;14.70;50.30;;;;;;1481112;40;20616;-58
2021/05/22 01:14:21;;;;;;;1.23;0.65;;;14.70;50.20;;;;;;1481251;40;20041;-58
2021/05/22 01:15:43;;;;;;;1.42;0.80;;;14.70;50.20;;;;;;1479764;40;20040;-59
2021/05/22 01:17:05;;;;;;;0.73;0.50;;;14.70;50.20;;;;;;1477817;40;20073;-58
2021/05/22 01:18:26;;;;;;;1.67;0.80;;;14.70;50.30;;;;;;1480368;40;20040;-59
2021/05/22 01:20:21;;;;;;;4.30;1.10;;;14.70;50.30;;;;;;1479654;40;20377;-58
2021/05/22 01:21:43;;;;;;;2.97;0.80;;;14.70;50.50;;;;;;1481456;40;20452;-59
2021/05/22 01:23:10;;;;;;;1.38;0.85;;;14.70;50.30;;;;;;1479397;40;20366;-59
2021/05/22 01:24:37;;;;;;;2.95;1.00;;;14.70;50.40;;;;;;1479820;40;20033;-58
2021/05/22 01:25:59;;;;;;;4.13;0.88;;;14.60;50.40;;;;;;1480843;40;20416;-57
2021/05/22 01:27:20;;;;;;;1.33;0.70;;;14.60;50.50;;;;;;1479414;40;20025;-58
2021/05/22 01:28:44;;;;;;;3.00;0.90;;;14.60;50.60;;;;;;1479134;40;20047;-57
2021/05/22 01:30:05;;;;;;;2.42;0.77;;;14.60;50.60;;;;;;1480948;40;20033;-58
2021/05/22 01:31:26;;;;;;;0.85;0.60;;;14.60;51.00;;;;;;1480682;40;20036;-58
2021/05/22 01:32:47;;;;;;;1.67;0.70;;;14.50;50.60;;;;;;1478558;40;20130;-59
2021/05/22 01:34:09;;;;;;;1.58;0.82;;;14.50;50.60;;;;;;1480261;40;20700;-59
2021/05/22 01:35:30;;;;;;;2.97;0.95;;;14.50;50.70;;;;;;1478624;40;20087;-59
2021/05/22 01:36:51;;;;;;;1.73;0.60;;;14.50;50.80;;;;;;1479760;40;20036;-59
2021/05/22 01:38:12;;;;;;;2.10;1.10;;;14.50;50.80;;;;;;1480821;40;20074;-59
2021/05/22 01:39:33;;;;;;;2.20;1.05;;;14.50;50.80;;;;;;1480921;40;20083;-58
2021/05/22 01:40:54;;;;;;;1.83;0.80;;;14.50;50.80;;;;;;1480441;40;20099;-59
2021/05/22 01:42:15;;;;;;;1.25;0.60;;;14.50;50.80;;;;;;1479068;40;20033;-59
2021/05/22 01:43:41;;;;;;;2.38;0.60;;;14.50;50.90;;;;;;1480578;40;20025;-58
2021/05/22 01:45:12;;;;;;;2.72;1.20;;;14.50;51.00;;;;;;1480046;40;20068;-59
2021/05/22 01:46:34;;;;;;;2.65;0.80;;;14.50;51.10;;;;;;1480034;40;20063;-58
2021/05/22 01:47:58;;;;;;;2.00;0.60;;;14.50;51.00;;;;;;1481166;40;20037;-59
2021/05/22 01:49:25;;;;;;;2.17;0.82;;;14.40;50.90;;;;;;1480853;40;20098;-58
2021/05/22 01:51:15;;;;;;;1.73;0.80;;;14.50;50.90;;;;;;1480258;40;20079;-59
2021/05/22 01:52:38;;;;;;;1.08;0.77;;;14.50;51.10;;;;;;1479621;40;20056;-57
2021/05/22 01:54:00;;;;;;;2.42;0.82;;;14.50;50.90;;;;;;1478987;40;20122;-59
2021/05/22 01:55:22;;;;;;;2.22;0.82;;;14.50;50.90;;;;;;1480454;40;20028;-59
2021/05/22 01:56:45;;;;;;;1.50;0.90;;;14.40;50.90;;;;;;1479420;40;20021;-59
2021/05/22 01:58:06;;;;;;;4.13;0.88;;;14.50;50.90;;;;;;1480328;40;20040;-59
2021/05/22 01:59:28;;;;;;;2.90;0.95;;;14.50;51.00;;;;;;1478196;40;20055;-59
2021/05/22 02:00:49;;;;;;;3.90;1.08;;;14.40;50.90;;;;;;1478284;40;20044;-59
2021/05/22 02:02:11;;;;;;;1.17;0.70;;;14.40;51.00;;;;;;1478479;40;20369;-55
2021/05/22 02:03:42;;;;;;;2.38;0.80;;;14.40;51.10;;;;;;1479113;40;20029;-57
2021/05/22 02:05:05;;;;;;;3.75;0.82;;;14.40;51.20;;;;;;1480645;40;20032;-58
2021/05/22 02:06:29;;;;;;;3.33;1.33;;;14.40;51.50;;;;;;1480983;40;20021;-58
2021/05/22 02:07:53;;;;;;;1.23;0.82;;;14.40;51.00;;;;;;1479359;40;20352;-58
2021/05/22 02:09:15;;;;;;;2.00;0.80;;;14.40;51.10;;;;;;1478929;40;20044;-58
2021/05/22 02:10:36;;;;;;;3.10;0.80;;;14.40;51.10;;;;;;1478674;40;20077;-58
2021/05/22 02:11:57;;;;;;;0.80;0.50;;;14.40;51.00;;;;;;1481143;40;20036;-58
2021/05/22 02:13:18;;;;;;;3.17;1.05;;;14.40;51.00;;;;;;1480368;40;20450;-59
2021/05/22 02:14:42;;;;;;;4.07;0.98;;;14.40;51.00;;;;;;1479763;40;20092;-59
2021/05/22 02:16:04;;;;;;;3.60;1.10;;;14.40;51.10;;;;;;1480224;40;20055;-59
2021/05/22 02:17:25;;;;;;;2.55;0.90;;;14.40;51.10;;;;;;1477470;40;20343;-58
2021/05/22 02:18:47;;;;;;;2.80;1.02;;;14.40;51.00;;;;;;1479468;40;20038;-59
2021/05/22 02:20:09;;;;;;;4.53;0.90;;;14.40;51.00;;;;;;1480453;40;20033;-59
2021/05/22 02:21:32;;;;;;;3.20;0.80;;;14.40;51.00;;;;;;1479348;40;20391;-58
2021/05/22 02:22:55;;;;;;;1.92;0.73;;;14.40;51.10;;;;;;1476626;40;20029;-58
2021/05/22 02:24:18;;;;;;;2.25;0.95;;;14.40;51.10;;;;;;1478685;40;20062;-59
2021/05/22 02:25:39;;;;;;;2.20;0.88;;;14.40;51.10;;;;;;1478505;40;20370;-58
2021/05/22 02:27:02;;;;;;;0.60;0.60;;;14.40;51.20;;;;;;1477992;40;20115;-58
2021/05/22 02:28:28;;;;;;;2.03;0.90;;;14.40;51.10;;;;;;1477732;40;20040;-58
2021/05/22 02:29:49;;;;;;;2.17;0.70;;;14.40;51.10;;;;;;1478853;40;20037;-57
2021/05/22 02:31:10;;;;;;;1.90;0.80;;;14.40;51.10;;;;;;1480999;40;20282;-55
2021/05/22 02:32:31;;;;;;;2.15;0.80;;;14.40;51.10;;;;;;1479755;40;20362;-59
2021/05/22 02:33:58;;;;;;;1.65;0.60;;;14.40;51.20;;;;;;1481137;40;20044;-59
2021/05/22 02:35:20;;;;;;;1.20;0.70;;;14.40;51.20;;;;;;1478543;40;20052;-58
2021/05/22 02:36:43;;;;;;;2.08;0.80;;;14.40;51.20;;;;;;1478747;40;20447;-57
2021/05/22 02:38:06;;;;;;;3.72;0.88;;;14.40;51.20;;;;;;1480639;40;20052;-57
2021/05/22 02:39:27;;;;;;;3.70;1.15;;;14.40;51.20;;;;;;1480500;40;20430;-58
2021/05/22 02:40:56;;;;;;;2.10;1.10;;;14.40;51.20;;;;;;1478241;40;20030;-57
2021/05/22 02:42:18;;;;;;;2.70;0.80;;;14.40;51.20;;;;;;1480304;40;20029;-58
2021/05/22 02:43:43;;;;;;;2.85;1.08;;;14.40;51.20;;;;;;1479657;40;20406;-57
2021/05/22 02:45:07;;;;;;;1.73;0.63;;;14.40;51.20;;;;;;1478927;40;20138;-58
2021/05/22 02:46:34;;;;;;;4.75;0.93;;;14.40;51.10;;;;;;1481673;40;20028;-58
2021/05/22 02:47:57;;;;;;;4.68;1.10;;;14.40;51.10;;;;;;1481705;40;20029;-59
2021/05/22 02:49:25;;;;;;;2.95;0.98;;;14.40;51.10;;;;;;1480316;40;20035;-58
2021/05/22 02:50:49;;;;;;;6.68;1.20;;;14.40;51.10;;;;;;1482392;40;20028;-59
2021/05/22 02:52:12;;;;;;;1.75;0.88;;;14.40;51.10;;;;;;1478866;40;20018;-59
2021/05/22 02:53:36;;;;;;;3.38;1.05;;;14.40;51.10;;;;;;1481867;40;20037;-59
2021/05/22 02:54:58;;;;;;;1.15;0.75;;;14.40;51.10;;;;;;1479174;40;20048;-58
2021/05/22 02:56:20;;;;;;;2.50;0.90;;;14.40;51.00;;;;;;1479859;40;20063;-59
2021/05/22 02:57:43;;;;;;;1.90;1.02;;;14.40;51.10;;;;;;1479715;40;20043;-56
2021/05/22 02:59:05;;;;;;;1.65;0.98;;;14.40;51.10;;;;;;1481062;40;20138;-58
2021/05/22 03:00:26;;;;;;;1.80;0.90;;;14.40;51.10;;;;;;1478746;40;20082;-59
2021/05/22 03:01:48;;;;;;;2.33;1.00;;;14.40;51.10;;;;;;1478327;40;20044;-59
2021/05/22 03:03:09;;;;;;;1.30;0.70;;;14.40;51.20;;;;;;1479238;40;20036;-58
2021/05/22 03:04:31;;;;;;;2.28;0.75;;;14.40;51.20;;;;;;1478138;40;20030;-58
2021/05/22 03:05:52;;;;;;;1.77;0.88;;;14.40;51.20;;;;;;1481293;40;20036;-58
2021/05/22 03:07:14;;;;;;;3.35;1.38;;;14.40;51.30;;;;;;1480930;40;20021;-58
2021/05/22 03:08:45;;;;;;;2.97;1.15;;;14.40;51.20;;;;;;1479386;40;20037;-59
2021/05/22 03:10:07;;;;;;;1.65;0.75;;;14.40;51.40;;;;;;1480935;40;20036;-59
2021/05/22 03:11:28;;;;;;;2.10;0.88;;;14.40;51.40;;;;;;1477441;40;20040;-59
2021/05/22 03:12:49;;;;;;;1.90;1.00;;;14.40;51.30;;;;;;1479497;40;20045;-58
2021/05/22 03:14:10;;;;;;;2.70;0.80;;;14.40;51.30;;;;;;1478711;40;20273;-58
2021/05/22 03:15:32;;;;;;;4.13;0.70;;;14.40;51.40;;;;;;1479396;40;20082;-59
2021/05/22 03:16:53;;;;;;;4.30;0.82;;;14.40;51.50;;;;;;1479306;40;20278;-60
2021/05/22 03:18:14;;;;;;;2.78;1.15;;;14.40;51.40;;;;;;1481510;40;20364;-58
2021/05/22 03:19:35;;;;;;;3.97;0.95;;;14.40;51.50;;;;;;1481294;40;20321;-59
2021/05/22 03:20:55;;;;;;;4.20;0.90;;;14.40;51.60;;;;;;1481198;40;20029;-58
2021/05/22 03:22:16;;;;;;;1.23;0.85;;;14.40;51.60;;;;;;1478420;40;20118;-58
2021/05/22 03:23:38;;;;;;;3.22;1.08;;;14.40;51.60;;;;;;1479531;40;20043;-59
2021/05/22 03:24:59;;;;;;;5.20;1.40;;;14.30;51.60;;;;;;1480614;40;20045;-59
2021/05/22 03:26:20;;;;;;;4.45;1.02;;;14.30;51.70;;;;;;1481118;40;20282;-59
2021/05/22 03:27:41;;;;;;;5.13;1.52;;;14.40;51.70;;;;;;1479264;40;20281;-57
2021/05/22 03:29:02;;;;;;;2.83;0.85;;;14.30;51.80;;;;;;1480418;40;20271;-58
2021/05/22 03:30:23;;;;;;;4.40;0.95;;;14.40;52.30;;;;;;1480260;40;20045;-58
2021/05/22 03:31:44;;;;;;;2.35;1.10;;;14.40;51.80;;;;;;1478748;40;20049;-58
2021/05/22 03:33:05;;;;;;;2.75;0.80;;;14.30;52.00;;;;;;1479687;40;20033;-57
2021/05/22 03:34:26;;;;;;;3.30;1.00;;;14.40;51.90;;;;;;1479372;40;20037;-59
2021/05/22 03:35:47;;;;;;;3.55;1.20;;;14.40;52.00;;;;;;1481758;40;20043;-59
2021/05/22 03:37:08;;;;;;;3.00;1.00;;;14.40;52.10;;;;;;1478488;40;20073;-59
2021/05/22 03:38:29;;;;;;;5.80;1.58;;;14.30;52.00;;;;;;1479926;40;20036;-59
2021/05/22 03:39:50;;;;;;;2.92;1.20;;;14.30;52.20;;;;;;1481053;40;20363;-59
2021/05/22 03:41:11;;;;;;;2.60;1.00;;;14.40;52.10;;;;;;1481072;40;20017;-57
2021/05/22 03:42:32;;;;;;;6.18;1.20;;;14.40;52.10;;;;;;1479442;40;20045;-57
2021/05/22 03:43:53;;;;;;;2.08;0.90;;;14.40;52.20;;;;;;1478667;40;20348;-59
2021/05/22 03:45:14;;;;;;;3.80;1.00;;;14.40;52.20;;;;;;1480542;40;20028;-58
2021/05/22 03:46:35;;;;;;;1.42;0.80;;;14.30;52.10;;;;;;1480480;40;20870;-59
2021/05/22 03:47:56;;;;;;;2.53;1.08;;;14.40;52.20;;;;;;1478461;40;20032;-59
2021/05/22 03:49:17;;;;;;;3.03;1.33;;;14.40;52.30;;;;;;1481095;40;20021;-59
2021/05/22 03:50:37;;;;;;;4.93;1.27;;;14.40;52.30;;;;;;1478923;40;20436;-55
2021/05/22 03:51:58;;;;;;;3.13;1.20;;;14.40;52.30;;;;;;1479436;40;20070;-58
2021/05/22 03:53:19;;;;;;;4.57;1.23;;;14.40;52.40;;;;;;1477920;40;20056;-58
2021/05/22 03:54:40;;;;;;;6.07;1.58;;;14.40;52.40;;;;;;1479709;40;20033;-59
2021/05/22 03:56:01;;;;;;;3.40;1.17;;;14.40;52.60;;;;;;1479675;40;20037;-59
2021/05/22 03:57:23;;;;;;;4.63;1.30;;;14.40;52.50;;;;;;1479201;40;20035;-55
2021/05/22 03:58:44;;;;;;;4.13;1.23;;;14.40;52.70;;;;;;1479564;40;20029;-59
2021/05/22 04:00:07;;;;;;;2.25;1.17;;;14.40;52.80;;;;;;1480870;40;20345;-58
2021/05/22 04:01:28;;;;;;;3.90;1.40;;;14.40;52.80;;;;;;1481045;40;20029;-59
2021/05/22 04:02:49;;;;;;;2.10;1.00;;;14.40;52.90;;;;;;1481199;40;20043;-59
2021/05/22 04:04:10;;;;;;;4.90;1.48;;;14.40;52.80;;;;;;1477376;40;20037;-58
2021/05/22 04:05:31;;;;;;;4.15;1.10;;;14.40;52.80;;;;;;1480890;40;20333;-59
2021/05/22 04:06:52;;;;;;;6.93;0.90;;;14.40;53.10;;;;;;1479568;40;20044;-59
2021/05/22 04:08:13;;;;;;;2.17;1.25;;;14.40;53.10;;;;;;1479162;40;20104;-59
2021/05/22 04:09:34;;;;;;;3.65;1.30;;;14.40;53.10;;;;;;1481336;40;20038;-59
2021/05/22 04:10:54;;;;;;;3.33;1.40;;;14.40;53.00;;;;;;1481354;40;20052;-59
2021/05/22 04:12:15;;;;;;;2.83;1.08;;;14.40;52.90;;;;;;1480035;40;20037;-56
2021/05/22 04:13:36;;;;;;;3.92;1.45;;;14.40;53.10;;;;;;1481664;40;20037;-58
2021/05/22 04:14:57;;;;;;;3.80;1.20;;;14.40;53.10;;;;;;1480500;40;20033;-59
2021/05/22 04:16:18;;;;;;;3.88;0.95;;;14.40;53.10;;;;;;1480919;40;20040;-59
2021/05/22 04:17:39;;;;;;;4.45;1.30;;;14.40;53.10;;;;;;1479853;40;20045;-59
2021/05/22 04:19:02;;;;;;;6.57;1.60;;;14.40;53.10;;;;;;1480595;40;20043;-58
2021/05/22 04:20:23;;;;;;;4.90;1.00;;;14.40;53.30;;;;;;1481422;40;20029;-57
2021/05/22 04:21:44;;;;;;;1.23;1.00;;;14.40;53.20;;;;;;1480103;40;20044;-59
2021/05/22 04:23:06;;;;;;;3.75;1.30;;;14.40;53.20;;;;;;1478231;40;20049;-58
2021/05/22 04:24:26;;;;;;;4.00;1.55;;;14.40;53.30;;;;;;1481360;40;20032;-59
2021/05/22 04:25:47;;;;;;;2.75;1.15;;;14.40;53.30;;;;;;1482165;40;20333;-57
2021/05/22 04:27:08;;;;;;;6.90;2.03;;;14.40;53.30;;;;;;1478236;40;20053;-59
2021/05/22 04:28:29;;;;;;;3.65;1.10;;;14.50;53.40;;;;;;1481252;40;20040;-58
2021/05/22 04:29:50;;;;;;;2.72;1.25;;;14.40;53.40;;;;;;1478360;40;20040;-59
2021/05/22 04:31:11;;;;;;;4.97;1.50;;;14.40;53.40;;;;;;1477189;40;20376;-59
2021/05/22 04:32:32;;;;;;;2.60;1.08;;;14.50;53.50;;;;;;1478363;40;20074;-59
2021/05/22 04:33:53;;;;;;;4.50;1.38;;;14.40;53.40;;;;;;1481315;40;20016;-59
2021/05/22 04:35:14;;;;;;;6.07;1.38;;;14.40;53.60;;;;;;1480821;40;20373;-58
2021/05/22 04:36:35;;;;;;;3.78;1.70;;;14.50;53.50;;;;;;1480869;40;20039;-59
2021/05/22 04:37:56;;;;;;;6.28;1.35;;;14.50;53.50;;;;;;1480942;40;20029;-59
2021/05/22 04:39:17;;;;;;;4.15;1.30;;;14.50;53.50;;;;;;1481998;40;20029;-59
2021/05/22 04:40:38;;;;;;;3.38;1.17;;;14.50;53.50;;;;;;1476558;40;20120;-59
2021/05/22 04:41:58;;;;;;;4.75;1.60;;;14.50;53.60;;;;;;1478868;40;20032;-59
2021/05/22 04:43:19;;;;;;;3.05;1.42;;;14.50;53.60;;;;;;1482067;40;20037;-59
2021/05/22 04:44:40;;;;;;;4.18;1.00;;;14.50;53.60;;;;;;1480583;40;20028;-58
2021/05/22 04:46:01;;;;;;;4.40;1.30;;;14.50;53.50;;;;;;1480662;40;20029;-59
2021/05/22 04:47:22;;;;;;;3.60;1.13;;;14.50;53.60;;;;;;1480413;40;20026;-59
2021/05/22 04:48:43;;;;;;;2.72;1.25;;;14.50;53.50;;;;;;1482487;40;20053;-59
2021/05/22 04:50:06;;;;;;;3.35;1.30;;;14.50;53.70;;;;;;1478597;40;20059;-57
2021/05/22 04:51:27;;;;;;;5.30;1.23;;;14.50;53.60;;;;;;1478216;40;20025;-59
2021/05/22 04:52:47;;;;;;;3.67;1.30;;;14.50;53.50;;;;;;1478018;40;20029;-59
2021/05/22 04:54:09;;;;;;;3.63;1.02;;;14.50;53.60;;;;;;1480443;40;20028;-58
2021/05/22 04:55:30;;;;;;;3.90;1.20;;;14.50;53.50;;;;;;1480953;40;20045;-59
2021/05/22 04:56:51;;;;;;;4.57;1.50;;;14.50;53.50;;;;;;1480932;40;20032;-58
2021/05/22 04:58:12;;;;;;;3.30;1.05;;;14.50;53.60;;;;;;1479634;40;20024;-58
2021/05/22 04:59:33;;;;;;;2.83;1.02;;;14.50;53.60;;;;;;1479358;40;20486;-58
2021/05/22 05:00:54;;;;;;;2.55;1.17;;;14.50;53.60;;;;;;1479767;40;20050;-58
2021/05/22 05:02:15;;;;;;;3.25;0.90;;;14.60;53.60;;;;;;1479943;40;20293;-58
2021/05/22 05:03:35;;;;;;;4.15;1.15;;;14.60;53.70;;;;;;1480413;40;20037;-58
2021/05/22 05:04:56;;;;;;;5.38;1.40;;;14.50;53.60;;;;;;1478573;40;20362;-59
2021/05/22 05:06:18;;;;;;;5.00;1.00;;;14.50;53.60;;;;;;1480734;40;20412;-59
2021/05/22 05:07:42;;;;;;;2.65;1.10;;;14.60;53.60;;;;;;1480449;40;20036;-56
2021/05/22 05:09:05;;;;;;;3.83;1.17;;;14.60;53.60;;;;;;1481522;40;20048;-60
2021/05/22 05:10:27;;;;;;;2.67;1.02;;;14.60;53.60;;;;;;1482905;40;20051;-60
2021/05/22 05:11:48;;;;;;;4.35;1.23;;;14.60;53.60;;;;;;1478489;40;20542;-59
2021/05/22 05:13:08;;;;;;;2.53;1.00;;;14.60;53.50;;;;;;1477560;40;20262;-57
2021/05/22 05:14:30;;;;;;;4.47;0.98;;;14.60;53.50;;;;;;1479936;40;20033;-59
2021/05/22 05:15:50;;;;;;;6.00;1.38;;;14.60;53.50;;;;;;1480894;40;20048;-60
2021/05/22 05:17:11;;;;;;;2.38;1.20;;;14.60;53.60;;;;;;1480305;40;20021;-59
2021/05/22 05:18:32;;;;;;;4.55;1.20;;;14.60;53.50;;;;;;1477673;40;20025;-59
2021/05/22 05:19:53;;;;;;;2.63;0.93;;;14.60;53.60;;;;;;1478230;40;20037;-58
2021/05/22 05:21:14;;;;;;;5.35;1.10;;;14.60;53.60;;;;;;1477348;40;20049;-59
2021/05/22 05:22:35;;;;;;;4.68;1.15;;;14.60;53.60;;;;;;1481392;40;20036;-60
2021/05/22 05:23:56;;;;;;;4.32;1.35;;;14.60;53.60;;;;;;1478910;40;20273;-58
2021/05/22 05:25:17;;;;;;;5.00;1.17;;;14.60;53.60;;;;;;1480840;40;20028;-59
2021/05/22 05:26:38;;;;;;;3.05;1.20;;;14.60;53.60;;;;;;1481669;40;20041;-61
2021/05/22 05:27:59;;;;;;;2.42;1.20;;;14.60;53.60;;;;;;1478411;40;20082;-60
2021/05/22 05:29:20;;;;;;;4.85;1.48;;;14.70;53.60;;;;;;1479400;40;20373;-59
2021/05/22 05:30:40;;;;;;;3.55;1.20;;;14.70;53.60;;;;;;1477927;40;20088;-59
2021/05/22 05:32:01;;;;;;;3.45;1.15;;;14.70;53.60;;;;;;1478635;40;20251;-60
2021/05/22 05:33:22;;;;;;;2.65;0.80;;;14.70;53.60;;;;;;1479847;40;20025;-59
2021/05/22 05:34:44;;;;;;;4.63;1.48;;;14.70;53.50;;;;;;1477646;40;20108;-60
2021/05/22 05:36:05;;;;;;;3.20;1.33;;;14.70;53.50;;;;;;1481158;40;20028;-60
2021/05/22 05:37:26;;;;;;;3.33;1.02;;;14.70;53.50;;;;;;1479968;40;20064;-59
2021/05/22 05:38:47;;;;;;;2.88;1.15;;;14.70;53.70;;;;;;1480316;40;20427;-60
2021/05/22 05:40:08;;;;;;;3.35;1.02;;;14.70;53.60;;;;;;1480611;40;20036;-60
2021/05/22 05:41:29;;;;;;;2.83;1.00;;;14.70;53.50;;;;;;1478379;40;20122;-59
2021/05/22 05:42:50;;;;;;;3.10;1.10;;;14.70;53.50;;;;;;1478678;40;20025;-59
2021/05/22 05:44:11;;;;;;;4.93;1.48;;;14.70;53.50;;;;;;1478901;40;20029;-58
2021/05/22 05:45:32;;;;;;;3.78;1.10;;;14.70;53.50;;;;;;1481029;40;20118;-60
2021/05/22 05:46:53;;;;;;;4.70;0.98;;;14.70;53.50;;;;;;1480618;40;20080;-57
2021/05/22 05:48:14;;;;;;;3.80;1.27;;;14.70;53.50;;;;;;1479063;40;20037;-58
2021/05/22 05:49:35;;;;;;;4.28;1.25;;;14.70;53.40;;;;;;1481669;40;20142;-60
2021/05/22 05:50:56;;;;;;;2.25;1.00;;;14.70;53.50;;;;;;1480393;40;20024;-61
2021/05/22 05:52:17;;;;;;;3.58;1.20;;;14.70;53.50;;;;;;1479092;40;20036;-58
2021/05/22 05:53:39;;;;;;;5.78;1.50;;;14.70;53.50;;;;;;1479308;40;20068;-59
2021/05/22 05:55:00;;;;;;;2.38;1.15;;;14.70;53.40;;;;;;1479816;40;20045;-59
2021/05/22 05:56:21;;;;;;;4.25;1.25;;;14.80;53.50;;;;;;1479340;40;20118;-59
2021/05/22 05:57:42;;;;;;;5.38;1.17;;;14.70;53.50;;;;;;1479548;40;20350;-58
2021/05/22 05:59:03;;;;;;;1.67;0.70;;;14.80;53.50;;;;;;1479223;40;20021;-58
2021/05/22 06:00:24;;;;;;;3.67;0.85;;;14.70;53.50;;;;;;1480556;40;20053;-59
2021/05/22 06:01:45;;;;;;;3.13;1.15;;;14.70;53.70;;;;;;1478923;40;20036;-55
2021/05/22 06:03:06;;;;;;;4.38;1.65;;;14.70;53.70;;;;;;1478672;40;20045;-57
2021/05/22 06:04:27;;;;;;;2.90;1.17;;;14.70;54.00;;;;;;1479587;40;20420;-59
2021/05/22 06:05:48;;;;;;;4.57;1.52;;;14.70;54.10;;;;;;1479292;40;20121;-60
2021/05/22 06:07:09;;;;;;;3.30;1.20;;;14.80;54.60;;;;;;1479042;40;20379;-59
2021/05/22 06:08:30;;;;;;;2.08;0.82;;;14.80;54.60;;;;;;1480889;40;20114;-58
2021/05/22 06:09:51;;;;;;;4.25;1.20;;;14.70;54.40;;;;;;1479065;40;20366;-58
2021/05/22 06:11:14;;;;;;;4.78;1.30;;;14.70;54.60;;;;;;1478798;40;20281;-59
2021/05/22 06:12:35;;;;;;;3.72;1.27;;;14.70;54.70;;;;;;1479498;40;20088;-59
2021/05/22 06:13:57;;;;;;;4.10;1.48;;;14.70;55.20;;;;;;1480999;40;20084;-59
2021/05/22 06:16:39;;;;;;;3.17;0.88;;;14.60;54.90;;;;;;1477268;40;20037;-59
2021/05/22 06:18:00;;;;;;;4.03;1.25;;;14.60;54.90;;;;;;1481010;40;20055;-59
2021/05/22 06:19:21;;;;;;;4.28;1.30;;;14.60;54.80;;;;;;1479837;40;20028;-59
2021/05/22 06:20:42;;;;;;;3.67;1.23;;;14.60;55.00;;;;;;1477493;40;20033;-60
2021/05/22 06:22:03;;;;;;;3.90;1.30;;;14.60;55.10;;;;;;1480635;40;20040;-59
2021/05/22 06:23:24;;;;;;;2.67;1.13;;;14.60;55.10;;;;;;1478013;40;20356;-60
2021/05/22 06:24:46;;;;;;;5.28;1.08;;;14.50;55.50;;;;;;1481243;40;20059;-59
2021/05/22 06:26:07;;;;;;;3.28;1.17;;;14.50;55.70;;;;;;1479964;40;20269;-58
2021/05/22 06:27:28;;;;;;;3.70;1.20;;;14.50;55.70;;;;;;1479581;40;20321;-59
2021/05/22 06:28:49;;;;;;;2.75;0.85;;;14.50;55.60;;;;;;1479375;40;20401;-57
2021/05/22 06:30:11;;;;;;;2.40;1.13;;;14.50;55.40;;;;;;1480267;40;20032;-57
2021/05/22 06:31:32;;;;;;;3.45;1.13;;;14.40;55.50;;;;;;1476153;40;20036;-58
2021/05/22 06:32:52;;;;;;;4.07;1.35;;;14.50;55.60;;;;;;1479397;40;20127;-59
2021/05/22 06:34:13;;;;;;;3.72;1.10;;;14.50;55.70;;;;;;1480996;40;20379;-58
2021/05/22 06:35:34;;;;;;;5.15;1.70;;;14.40;55.70;;;;;;1479714;40;20096;-60
2021/05/22 06:36:55;;;;;;;6.43;1.50;;;14.40;55.70;;;;;;1479467;40;20710;-59
2021/05/22 06:38:16;;;;;;;2.10;1.05;;;14.40;55.70;;;;;;1479490;40;20029;-59
2021/05/22 06:39:37;;;;;;;3.85;1.27;;;14.40;55.80;;;;;;1479021;40;20466;-58
2021/05/22 06:40:58;;;;;;;4.82;1.30;;;14.40;55.70;;;;;;1477189;40;20423;-60
2021/05/22 06:42:19;;;;;;;5.78;1.63;;;14.40;55.80;;;;;;1479667;40;20025;-60
2021/05/22 06:43:40;;;;;;;3.22;1.10;;;14.40;55.60;;;;;;1478158;40;20049;-60
2021/05/22 06:45:09;;;;;;;3.75;1.35;;;14.40;55.50;;;;;;1478657;40;20114;-59
2021/05/22 06:47:51;;;;;;;3.70;1.50;;;14.40;55.80;;;;;;1478472;40;20351;-59
2021/05/22 06:49:12;;;;;;;2.80;1.10;;;14.30;55.70;;;;;;1480205;40;20029;-60
2021/05/22 06:50:35;;;;;;;4.57;1.42;;;14.40;55.80;;;;;;1478371;40;20037;-60
2021/05/22 06:51:56;;;;;;;4.47;1.10;;;14.40;55.90;;;;;;1480700;40;20041;-59
2021/05/22 06:53:17;;;;;;;1.90;0.95;;;14.40;55.90;;;;;;1480285;40;20045;-60
2021/05/22 06:54:39;;;;;;;4.53;1.48;;;14.40;55.90;;;;;;1477624;40;20119;-59
2021/05/22 06:56:00;;;;;;;1.75;1.05;;;14.40;55.90;;;;;;1478228;40;20040;-59
2021/05/22 06:57:21;;;;;;;1.85;0.90;;;14.40;55.80;;;;;;1478222;40;20029;-60
2021/05/22 06:58:42;;;;;;;3.00;1.48;;;14.40;55.90;;;;;;1479201;40;20036;-57
2021/05/22 07:00:07;;;;;;;2.95;1.00;;;14.40;55.90;;;;;;1478708;40;20347;-59
2021/05/22 07:01:28;;;;;;;2.67;1.15;;;14.40;55.90;;;;;;1479646;40;20033;-58
2021/05/22 07:02:49;;;;;;;5.50;1.35;;;14.40;55.90;;;;;;1478750;40;20037;-60
2021/05/22 07:04:10;;;;;;;5.53;1.17;;;14.50;56.00;;;;;;1479628;40;20037;-59
2021/05/22 07:05:30;;;;;;;3.47;1.35;;;14.50;55.90;;;;;;1480107;40;20044;-60
2021/05/22 07:06:51;;;;;;;4.22;1.05;;;14.50;55.80;;;;;;1480862;40;20043;-59
2021/05/22 07:08:13;;;;;;;3.70;1.05;;;14.50;55.80;;;;;;1478265;40;20029;-61
2021/05/22 07:09:34;;;;;;;3.05;1.20;;;14.50;56.10;;;;;;1479109;40;20374;-60